createdAt,value
2022-07-25T00:03:58.177Z,11.55
2022-07-25T00:08:54.463Z,9.93
2022-07-25T00:13:50.694Z,8.65
2022-07-25T00:18:46.945Z,9.05
2022-07-25T00:23:43.206Z,10.32
2022-07-25T00:28:39.471Z,7.95
2022-07-25T00:33:35.977Z,8.23
2022-07-25T00:38:32.276Z,8.68
2022-07-25T00:43:28.584Z,7.85
2022-07-25T00:48:25.360Z,6.95
2022-07-25T00:53:22.072Z,7.15
2022-07-25T00:58:18.784Z,9.00
2022-07-25T01:08:21.320Z,6.72
2022-07-25T01:13:17.666Z,6.95
2022-07-25T01:18:14.017Z,8.95
2022-07-25T01:23:10.272Z,7.18
2022-07-25T01:28:06.506Z,8.93
2022-07-25T01:33:06.662Z,7.35
2022-07-25T01:38:04.681Z,7.85
2022-07-25T01:43:00.938Z,9.57
2022-07-25T01:47:57.198Z,9.10
2022-07-25T01:52:53.489Z,6.95
2022-07-25T01:57:50.329Z,7.75
2022-07-25T02:02:46.972Z,10.80
2022-07-25T02:07:43.207Z,6.40
2022-07-25T02:12:39.470Z,8.25
2022-07-25T02:17:35.777Z,5.70
2022-07-25T02:22:32.390Z,7.65
2022-07-25T02:27:28.622Z,8.98
2022-07-25T02:32:24.897Z,6.80
2022-07-25T02:37:21.176Z,5.65
2022-07-25T02:42:17.454Z,6.22
2022-07-25T02:47:13.718Z,6.68
2022-07-25T02:52:09.995Z,6.95
2022-07-25T02:57:06.254Z,6.38
2022-07-25T03:02:02.554Z,7.32
2022-07-25T03:06:58.860Z,8.07
2022-07-25T03:11:55.194Z,6.53
2022-07-25T03:16:51.480Z,7.40
2022-07-25T03:21:47.811Z,7.15
2022-07-25T03:26:44.195Z,6.05
2022-07-25T03:31:40.473Z,7.00
2022-07-25T03:36:36.806Z,6.90
2022-07-25T03:41:33.073Z,7.30
2022-07-25T03:46:29.393Z,5.45
2022-07-25T03:51:25.699Z,6.75
2022-07-25T03:56:22.134Z,5.80
2022-07-25T04:01:18.436Z,5.68
2022-07-25T04:06:15.683Z,6.32
2022-07-25T04:11:11.971Z,7.53
2022-07-25T04:16:11.668Z,4.28
2022-07-25T04:21:11.025Z,5.40
2022-07-25T04:26:07.722Z,8.20
2022-07-25T04:31:03.983Z,5.78
2022-07-25T04:36:00.298Z,5.45
2022-07-25T04:40:56.538Z,8.73
2022-07-25T04:45:52.793Z,4.88
2022-07-25T04:50:49.182Z,5.97
2022-07-25T04:55:45.518Z,5.07
2022-07-25T05:00:42.127Z,6.18
2022-07-25T05:05:38.466Z,4.35
2022-07-25T05:10:34.763Z,6.70
2022-07-25T05:15:31.049Z,5.50
2022-07-25T05:20:27.705Z,6.18
2022-07-25T05:25:25.247Z,6.00
2022-07-25T05:30:21.682Z,6.10
2022-07-25T05:35:17.929Z,6.65
2022-07-25T05:40:14.374Z,5.00
2022-07-25T05:45:10.715Z,5.85
2022-07-25T05:50:07.603Z,7.40
2022-07-25T05:55:04.214Z,4.45
2022-07-25T06:00:00.493Z,6.90
2022-07-25T06:04:56.808Z,9.57
2022-07-25T06:09:53.067Z,5.47
2022-07-25T06:14:49.334Z,6.63
2022-07-25T06:19:46.375Z,7.00
2022-07-25T06:24:42.623Z,9.80
2022-07-25T06:29:39.264Z,4.93
2022-07-25T06:34:35.582Z,8.90
2022-07-25T06:39:31.946Z,7.63
2022-07-25T06:44:28.168Z,6.97
2022-07-25T06:49:24.412Z,5.53
2022-07-25T06:54:20.837Z,7.63
2022-07-25T06:59:17.126Z,4.80
2022-07-25T07:04:13.351Z,5.50
2022-07-25T07:09:09.885Z,5.68
2022-07-25T07:14:06.556Z,6.47
2022-07-25T07:19:03.325Z,9.07
2022-07-25T07:23:59.911Z,8.85
2022-07-25T07:28:56.187Z,6.95
2022-07-25T07:33:52.453Z,7.13
2022-07-25T07:38:48.676Z,6.03
2022-07-25T07:43:45.293Z,7.90
2022-07-25T07:48:41.662Z,8.10
2022-07-25T07:53:56.735Z,6.63
2022-07-25T07:58:52.990Z,7.90
2022-07-25T08:03:49.210Z,6.57
2022-07-25T08:08:46.035Z,9.65
2022-07-25T08:13:42.273Z,7.82
2022-07-25T08:18:38.595Z,6.82
2022-07-25T08:23:35.482Z,7.78
2022-07-25T08:28:32.075Z,6.35
2022-07-25T08:33:28.486Z,7.97
2022-07-25T08:38:26.074Z,9.35
2022-07-25T08:43:22.583Z,7.13
2022-07-25T08:48:22.445Z,8.57
2022-07-25T08:53:35.900Z,7.80
2022-07-25T08:58:32.449Z,8.18
2022-07-25T09:03:28.779Z,11.52
2022-07-25T09:08:25.090Z,7.15
2022-07-25T09:13:22.200Z,7.63
2022-07-25T09:18:21.871Z,11.57
2022-07-25T09:23:27.169Z,8.02
2022-07-25T09:28:23.398Z,7.57
2022-07-25T09:33:19.711Z,10.10
2022-07-25T09:38:16.533Z,8.95
2022-07-25T09:43:12.802Z,8.52
2022-07-25T09:48:09.075Z,10.65
2022-07-25T09:53:05.472Z,8.00
2022-07-25T09:58:01.809Z,10.43
2022-07-25T10:03:18.422Z,9.38
2022-07-25T10:08:14.988Z,9.05
2022-07-25T10:13:15.231Z,8.73
2022-07-25T10:18:12.400Z,10.23
2022-07-25T10:23:20.812Z,11.23
2022-07-25T10:28:18.736Z,10.70
2022-07-25T10:33:17.601Z,10.52
2022-07-25T10:38:13.893Z,9.23
2022-07-25T10:43:13.159Z,9.27
2022-07-25T10:48:10.365Z,9.07
2022-07-25T10:53:09.099Z,8.68
2022-07-25T10:58:21.891Z,9.30
2022-07-25T11:03:18.785Z,8.90
2022-07-25T11:08:22.932Z,8.68
2022-07-25T11:13:19.408Z,9.02
2022-07-25T11:18:15.703Z,8.23
2022-07-25T11:23:11.965Z,9.02
2022-07-25T11:28:08.470Z,9.77
2022-07-25T11:33:04.723Z,8.95
2022-07-25T11:38:02.162Z,8.80
2022-07-25T11:42:59.532Z,8.25
2022-07-25T11:48:05.066Z,8.80
2022-07-25T11:53:02.201Z,8.75
2022-07-25T11:58:00.000Z,8.23
2022-07-25T12:03:06.309Z,8.88
2022-07-25T12:08:22.319Z,8.45
2022-07-25T12:13:22.575Z,9.02
2022-07-25T12:18:19.211Z,8.60
2022-07-25T12:23:15.461Z,8.32
2022-07-25T12:28:11.948Z,9.25
2022-07-25T12:33:08.290Z,8.13
2022-07-25T12:38:04.890Z,8.40
2022-07-25T12:43:01.259Z,15.45
2022-07-25T12:47:57.583Z,8.95
2022-07-25T12:52:53.960Z,8.98
2022-07-25T12:57:50.217Z,8.40
2022-07-25T13:02:47.235Z,9.00
2022-07-25T13:07:43.758Z,8.52
2022-07-25T13:12:40.087Z,8.55
2022-07-25T13:17:37.184Z,9.05
2022-07-25T13:22:33.500Z,9.00
2022-07-25T13:27:29.789Z,8.82
2022-07-25T13:32:28.236Z,8.77
2022-07-25T13:37:24.560Z,8.98
2022-07-25T13:42:20.863Z,9.10
2022-07-25T13:47:17.207Z,10.80
2022-07-25T13:52:13.534Z,9.32
2022-07-25T13:57:09.773Z,8.80
2022-07-25T14:02:06.064Z,9.57
2022-07-25T14:07:02.787Z,9.13
2022-07-25T14:11:59.074Z,9.27
2022-07-25T14:16:55.529Z,8.75
2022-07-25T14:21:51.915Z,10.07
2022-07-25T14:26:49.566Z,11.80
2022-07-25T14:31:45.885Z,12.82
2022-07-25T14:36:42.311Z,11.55
2022-07-25T14:41:38.587Z,14.35
2022-07-25T14:46:35.545Z,14.38
2022-07-25T14:51:33.141Z,14.50
2022-07-25T14:56:29.456Z,11.35
2022-07-25T15:01:25.808Z,10.27
2022-07-25T15:06:27.377Z,9.00
2022-07-25T15:11:25.730Z,11.30
2022-07-25T15:16:22.082Z,11.50
2022-07-25T15:21:18.384Z,9.55
2022-07-25T15:26:14.682Z,9.82
2022-07-25T15:31:11.106Z,9.15
2022-07-25T15:36:07.632Z,8.27
2022-07-25T15:41:03.939Z,9.07
2022-07-25T15:46:00.224Z,8.35
2022-07-25T15:50:58.666Z,9.27
2022-07-25T15:55:55.073Z,12.93
2022-07-25T16:00:51.337Z,10.80
2022-07-25T16:05:47.630Z,12.55
2022-07-25T16:10:43.857Z,11.27
2022-07-25T16:15:40.229Z,8.70
2022-07-25T16:20:36.585Z,10.65
2022-07-25T16:25:32.864Z,10.68
2022-07-25T16:30:29.105Z,8.73
2022-07-25T16:35:25.439Z,11.77
2022-07-25T16:40:22.987Z,14.18
2022-07-25T16:45:22.313Z,12.43
2022-07-25T16:50:18.659Z,11.10
2022-07-25T16:55:15.025Z,10.95
2022-07-25T17:00:12.050Z,13.90
2022-07-25T17:05:08.618Z,12.18
2022-07-25T17:10:05.135Z,10.20
2022-07-25T17:15:01.443Z,11.10
2022-07-25T17:20:00.017Z,12.80
2022-07-25T17:24:56.589Z,10.05
2022-07-25T17:29:52.874Z,16.23
2022-07-25T17:34:49.213Z,13.65
2022-07-25T17:39:45.472Z,11.82
2022-07-25T17:44:41.751Z,10.57
2022-07-25T17:49:38.047Z,15.15
2022-07-25T17:54:34.281Z,18.75
2022-07-25T17:59:30.580Z,11.40
2022-07-25T18:04:27.183Z,10.88
2022-07-25T18:09:24.095Z,13.45
2022-07-25T18:14:20.520Z,15.98
2022-07-25T18:19:16.824Z,9.75
2022-07-25T18:24:13.436Z,18.25
2022-07-25T18:29:09.777Z,11.40
2022-07-25T18:34:06.314Z,12.55
2022-07-25T18:39:03.367Z,14.18
2022-07-25T18:44:01.144Z,14.85
2022-07-25T18:48:58.440Z,12.23
2022-07-25T18:53:54.741Z,11.23
2022-07-25T18:58:51.043Z,12.35
2022-07-25T19:03:47.514Z,12.38
2022-07-25T19:08:43.805Z,10.98
2022-07-25T19:13:49.327Z,12.18
2022-07-25T19:18:46.742Z,14.02
2022-07-25T19:23:49.788Z,9.50
2022-07-25T19:28:47.233Z,10.48
2022-07-25T19:33:45.788Z,10.45
2022-07-25T19:38:42.080Z,14.63
2022-07-25T19:43:38.318Z,11.68
2022-07-25T19:48:34.645Z,15.27
2022-07-25T19:53:31.608Z,6.82
2022-07-25T19:58:27.910Z,13.05
2022-07-25T20:03:24.208Z,11.73
2022-07-25T20:08:20.496Z,8.75
2022-07-25T20:13:16.814Z,7.75
2022-07-25T20:18:18.957Z,8.27
2022-07-25T20:23:15.885Z,11.32
2022-07-25T20:28:12.180Z,9.10
2022-07-25T20:33:09.160Z,7.20
2022-07-25T20:38:09.164Z,11.70
2022-07-25T20:43:09.798Z,10.68
2022-07-25T20:48:06.200Z,12.23
2022-07-25T20:53:02.919Z,10.07
2022-07-25T20:57:59.328Z,13.50
2022-07-25T21:02:56.228Z,15.27
2022-07-25T21:07:52.771Z,9.07
2022-07-25T21:12:49.097Z,13.07
2022-07-25T21:17:45.412Z,9.50
2022-07-25T21:22:42.057Z,9.65
2022-07-25T21:27:39.153Z,12.20
2022-07-25T21:32:35.497Z,12.18
2022-07-25T21:37:32.227Z,12.35
2022-07-25T21:42:28.459Z,10.18
2022-07-25T21:47:24.717Z,11.88
2022-07-25T21:52:30.234Z,8.68
2022-07-25T21:57:31.146Z,13.05
2022-07-25T22:02:27.524Z,14.50
2022-07-25T22:07:25.085Z,10.32
2022-07-25T22:12:21.472Z,8.85
2022-07-25T22:17:17.730Z,8.68
2022-07-25T22:22:14.001Z,10.88
2022-07-25T22:27:10.277Z,13.55
2022-07-25T22:32:06.598Z,13.48
2022-07-25T22:37:02.913Z,14.52
2022-07-25T22:41:59.158Z,12.75
2022-07-25T22:46:55.390Z,11.32
2022-07-25T22:51:51.755Z,10.40
2022-07-25T22:56:48.000Z,11.60
2022-07-25T23:01:44.319Z,13.55
2022-07-25T23:06:40.635Z,10.77
2022-07-25T23:11:37.192Z,10.98
2022-07-25T23:16:33.598Z,10.63
2022-07-25T23:21:29.974Z,10.65
2022-07-25T23:26:27.187Z,12.35
2022-07-25T23:31:23.598Z,7.30
2022-07-25T23:36:19.931Z,12.15
2022-07-25T23:41:16.176Z,12.70
2022-07-25T23:46:12.450Z,11.45
2022-07-25T23:51:09.212Z,9.32
2022-07-25T23:56:05.583Z,8.45
